Time;durP1;ratioP1;P1;durP2;ratioP2;P2;SDS_P1;SDS_P2;PMS_P1;PMS_P2;Temp;Humidity;BMP_temperature;BMP_pressure;BME280_temperature;BME280_humidity;BME280_pressure;Samples;Min_cycle;Max_cycle;Signal;HPM_P1;HPM_P2
2023/01/01 00:01:14;;;;;;;37.58;19.90;;;15.20;99.90;;;;;;4938211;28;37335;-78
2023/01/01 00:03:41;;;;;;;36.08;17.58;;;15.20;99.90;;;;;;4954662;28;38956;-77
2023/01/01 00:06:09;;;;;;;35.22;19.42;;;15.10;99.90;;;;;;4933539;28;37981;-78
2023/01/01 00:08:36;;;;;;;39.20;23.60;;;15.10;99.90;;;;;;4940421;28;37763;-79
2023/01/01 00:11:04;;;;;;;30.13;14.70;;;15.00;99.90;;;;;;4939533;28;36536;-79
2023/01/01 00:13:30;;;;;;;32.50;16.88;;;15.00;99.90;;;;;;4957180;28;39404;-78
2023/01/01 00:16:05;;;;;;;29.02;15.85;;;15.00;99.90;;;;;;4940401;28;39380;-78
2023/01/01 00:18:31;;;;;;;46.38;22.17;;;15.00;99.90;;;;;;4936993;28;47182;-77
2023/01/01 00:21:07;;;;;;;35.22;15.65;;;15.00;99.90;;;;;;4956494;28;36488;-78
2023/01/01 00:23:33;;;;;;;29.02;15.80;;;15.10;99.90;;;;;;4942204;28;47236;-77
2023/01/01 00:26:00;;;;;;;31.67;15.10;;;15.10;99.90;;;;;;4954720;28;39130;-77
2023/01/01 00:28:26;;;;;;;99.53;62.67;;;15.10;99.90;;;;;;4935048;28;38766;-76
2023/01/01 00:30:53;;;;;;;31.90;14.75;;;15.10;99.90;;;;;;4935389;28;39286;-77
2023/01/01 00:33:20;;;;;;;53.97;19.92;;;15.00;99.90;;;;;;4934746;28;39453;-77
2023/01/01 00:35:46;;;;;;;37.05;17.48;;;15.10;99.90;;;;;;4938110;28;38582;-77
2023/01/01 00:38:12;;;;;;;50.78;26.52;;;15.10;99.90;;;;;;4941705;28;37439;-77
2023/01/01 00:40:38;;;;;;;33.92;16.60;;;15.00;99.90;;;;;;4942335;28;36662;-78
2023/01/01 00:43:04;;;;;;;28.77;13.18;;;15.10;99.90;;;;;;4932246;28;38752;-77
2023/01/01 00:45:31;;;;;;;22.70;12.45;;;15.20;99.90;;;;;;4935447;28;39346;-78
2023/01/01 00:47:57;;;;;;;26.40;11.02;;;15.20;99.90;;;;;;4937864;28;39472;-76
2023/01/01 00:50:23;;;;;;;31.90;12.43;;;15.30;99.90;;;;;;4940663;28;36328;-76
2023/01/01 00:52:49;;;;;;;30.08;12.75;;;15.30;99.90;;;;;;4937032;28;39700;-77
2023/01/01 00:55:16;;;;;;;26.08;10.55;;;15.40;99.90;;;;;;4951734;28;39431;-77
2023/01/01 00:57:42;;;;;;;27.15;11.32;;;15.40;99.90;;;;;;4940188;28;37577;-77
2023/01/01 01:00:09;;;;;;;17.50;6.60;;;15.30;99.90;;;;;;4941095;28;38091;-77
2023/01/01 01:02:35;;;;;;;20.15;6.90;;;15.30;99.90;;;;;;4962422;28;38417;-76
2023/01/01 01:05:02;;;;;;;16.50;6.15;;;15.40;99.90;;;;;;4938385;28;39047;-77
2023/01/01 01:07:34;;;;;;;19.80;6.20;;;15.40;99.90;;;;;;4939325;28;37427;-77
2023/01/01 01:10:00;;;;;;;53.38;32.03;;;15.40;99.90;;;;;;4959482;28;37178;-77
2023/01/01 01:12:26;;;;;;;17.10;6.95;;;15.40;99.90;;;;;;4951670;28;38478;-77
2023/01/01 01:14:52;;;;;;;23.40;10.55;;;15.30;99.90;;;;;;4946371;28;38487;-77
2023/01/01 01:17:19;;;;;;;17.45;6.68;;;15.20;99.90;;;;;;4935044;28;39104;-77
2023/01/01 01:19:45;;;;;;;19.23;9.90;;;15.20;99.90;;;;;;4941397;28;36303;-77
2023/01/01 01:22:11;;;;;;;18.40;5.13;;;15.20;99.90;;;;;;4938318;28;40699;-77
2023/01/01 01:24:37;;;;;;;19.58;5.82;;;15.20;99.90;;;;;;4956962;28;38877;-78
2023/01/01 01:27:03;;;;;;;17.55;5.90;;;15.20;99.90;;;;;;4926279;28;37606;-78
2023/01/01 01:29:29;;;;;;;14.63;5.18;;;15.20;99.90;;;;;;4932380;28;37716;-77
2023/01/01 01:31:55;;;;;;;12.63;4.53;;;15.10;99.90;;;;;;4948241;28;38639;-77
2023/01/01 01:34:22;;;;;;;17.80;4.40;;;15.10;99.90;;;;;;4935303;28;39194;-76
2023/01/01 01:36:48;;;;;;;25.13;5.72;;;15.00;99.90;;;;;;4955520;28;37694;-77
2023/01/01 01:39:14;;;;;;;15.75;5.55;;;15.00;99.90;;;;;;4942673;28;37760;-78
2023/01/01 01:41:41;;;;;;;12.77;4.88;;;14.90;99.90;;;;;;4958780;28;38414;-77
2023/01/01 01:45:02;;;;;;;17.38;5.35;;;14.80;99.90;;;;;;4951231;28;39691;-77
2023/01/01 01:47:53;;;;;;;16.02;3.70;;;14.80;99.90;;;;;;4875852;29;37049;-77
2023/01/01 01:50:36;;;;;;;13.70;3.92;;;14.80;99.90;;;;;;4929495;28;36875;-77
2023/01/01 01:53:22;;;;;;;;;;;14.80;99.90;;;;;;4934628;28;39688;-79
2023/01/01 01:56:01;;;;;;;24.30;5.53;;;14.80;99.90;;;;;;4936373;28;38780;-78
2023/01/01 01:58:30;;;;;;;13.40;4.63;;;14.80;99.90;;;;;;4932915;28;38790;-77
2023/01/01 02:03:50;;;;;;;9.25;4.20;;;14.80;99.90;;;;;;5004455;23;20063;-81
2023/01/01 02:06:18;;;;;;;13.40;3.78;;;14.70;99.90;;;;;;4924315;28;38948;-82
2023/01/01 02:08:45;;;;;;;13.15;3.53;;;14.70;99.90;;;;;;4917699;28;37062;-81
2023/01/01 02:11:11;;;;;;;15.40;3.72;;;14.80;99.90;;;;;;4915907;28;37430;-81
2023/01/01 02:13:37;;;;;;;62.50;20.10;;;14.90;99.90;;;;;;4912988;28;37692;-81
2023/01/01 02:16:12;;;;;;;47.85;18.42;;;14.80;99.90;;;;;;4932829;28;38646;-80
2023/01/01 02:18:43;;;;;;;17.70;7.45;;;14.90;99.90;;;;;;4931178;28;38258;-82
2023/01/01 02:21:19;;;;;;;22.40;8.32;;;14.80;99.90;;;;;;4934611;28;37716;-81
2023/01/01 02:23:59;;;;;;;167.63;68.15;;;14.80;99.90;;;;;;4939329;28;38863;-82
2023/01/01 02:26:46;;;;;;;105.65;37.35;;;14.80;99.90;;;;;;4931737;28;38363;-83
2023/01/01 02:29:37;;;;;;;15.65;4.68;;;14.80;99.90;;;;;;4931955;28;38683;-82
2023/01/01 02:32:34;;;;;;;37.15;12.00;;;14.80;99.90;;;;;;4929856;28;37767;-80
2023/01/01 02:37:59;;;;;;;32.97;10.65;;;14.80;99.90;;;;;;4935481;28;49952;-81
2023/01/01 02:40:27;;;;;;;51.50;18.95;;;14.90;99.90;;;;;;4913355;29;37586;-81
2023/01/01 02:42:55;;;;;;;21.95;7.97;;;14.90;99.90;;;;;;4935890;28;36115;-81
2023/01/01 02:45:21;;;;;;;41.88;13.02;;;15.00;99.90;;;;;;4936243;28;39627;-80
2023/01/01 02:47:47;;;;;;;17.95;6.43;;;15.00;99.90;;;;;;4935064;28;37469;-82
2023/01/01 02:50:24;;;;;;;26.00;7.03;;;15.00;99.90;;;;;;4918678;28;37436;-81
2023/01/01 02:53:08;;;;;;;26.38;9.35;;;15.00;99.90;;;;;;4915532;29;37158;-82
2023/01/01 02:55:59;;;;;;;16.23;3.47;;;14.90;99.90;;;;;;4914757;28;47045;-81
2023/01/01 03:01:42;;;;;;;10.82;3.25;;;14.90;99.90;;;;;;4938944;28;50127;-80
2023/01/01 03:04:40;;;;;;;12.70;2.85;;;14.90;99.90;;;;;;4934513;28;37274;-80
2023/01/01 03:07:45;;;;;;;15.23;5.55;;;15.00;99.90;;;;;;4935779;28;37835;-80
2023/01/01 03:10:29;;;;;;;16.65;5.65;;;15.10;99.90;;;;;;4935969;28;20199;-80
2023/01/01 03:13:08;;;;;;;19.90;6.18;;;15.10;99.90;;;;;;4947266;28;35781;-80
2023/01/01 03:15:55;;;;;;;26.67;7.93;;;15.10;99.90;;;;;;4932730;28;49079;-80
2023/01/01 03:19:10;;;;;;;22.45;6.57;;;15.00;99.90;;;;;;4941589;28;38248;-80
2023/01/01 03:21:44;;;;;;;15.65;4.38;;;15.10;99.90;;;;;;4934602;28;48763;-81
2023/01/01 03:24:35;;;;;;;14.80;4.85;;;14.70;99.90;;;;;;4929946;28;37824;-81
2023/01/01 03:27:06;;;;;;;16.15;5.45;;;14.30;99.90;;;;;;4935757;28;37146;-81
2023/01/01 03:29:38;;;;;;;15.23;6.20;;;14.10;99.90;;;;;;4929296;28;47124;-81
2023/01/01 03:32:06;;;;;;;15.03;4.43;;;14.00;99.90;;;;;;4934037;28;40050;-81
2023/01/01 03:34:38;;;;;;;13.90;4.35;;;14.20;99.90;;;;;;4955440;28;39969;-80
2023/01/01 03:37:09;;;;;;;15.13;3.83;;;14.20;99.90;;;;;;4954229;28;38109;-80
2023/01/01 03:39:40;;;;;;;14.60;4.82;;;14.10;99.90;;;;;;4957323;28;39728;-81
2023/01/01 03:42:33;;;;;;;14.35;3.65;;;13.90;99.90;;;;;;4935150;28;42204;-80
2023/01/01 03:45:28;;;;;;;;;;;13.90;99.90;;;;;;4957350;28;39390;-80
2023/01/01 03:47:55;;;;;;;12.10;2.42;;;13.90;99.90;;;;;;4941971;28;48144;-80
2023/01/01 03:50:45;;;;;;;14.10;3.13;;;13.90;99.90;;;;;;4961851;28;39903;-80
2023/01/01 03:53:28;;;;;;;17.67;3.30;;;13.80;99.90;;;;;;4952003;28;39011;-80
2023/01/01 03:56:19;;;;;;;58.95;35.55;;;13.70;99.90;;;;;;4956205;28;38852;-80
2023/01/01 03:58:59;;;;;;;14.00;3.40;;;13.70;99.90;;;;;;4943240;28;50010;-81
2023/01/01 04:01:32;;;;;;;15.65;3.90;;;13.60;99.90;;;;;;4937773;28;39442;-81
2023/01/01 04:04:00;;;;;;;11.85;3.17;;;13.50;99.90;;;;;;4914860;28;37576;-81
2023/01/01 04:06:26;;;;;;;9.57;2.80;;;13.50;99.90;;;;;;4912796;28;37429;-80
2023/01/01 04:08:57;;;;;;;16.40;2.88;;;13.50;99.90;;;;;;4919778;28;36848;-81
2023/01/01 04:14:12;;;;;;;19.55;3.35;;;13.40;99.90;;;;;;4926120;28;39646;-81
2023/01/01 04:16:38;;;;;;;12.70;2.83;;;13.40;99.90;;;;;;4933272;28;38249;-81
2023/01/01 04:19:07;;;;;;;13.27;2.65;;;13.40;99.90;;;;;;4929839;28;37044;-81
2023/01/01 04:21:33;;;;;;;11.73;2.92;;;13.40;99.90;;;;;;4910010;28;38907;-81
2023/01/01 04:23:59;;;;;;;15.65;4.13;;;13.40;99.90;;;;;;4929175;28;39027;-81
2023/01/01 04:26:25;;;;;;;9.52;2.47;;;13.50;99.90;;;;;;4924739;28;37300;-81
2023/01/01 04:28:51;;;;;;;15.38;2.53;;;13.50;99.90;;;;;;4916715;28;36597;-80
2023/01/01 04:31:17;;;;;;;11.10;2.35;;;13.50;99.90;;;;;;4931868;28;38547;-80
2023/01/01 04:33:43;;;;;;;18.08;3.10;;;13.40;99.90;;;;;;4932573;28;39229;-80
2023/01/01 04:36:10;;;;;;;9.35;2.00;;;13.50;99.90;;;;;;4908182;28;37987;-80
2023/01/01 04:38:37;;;;;;;10.63;2.70;;;13.40;99.90;;;;;;4916138;28;37199;-80
2023/01/01 04:41:03;;;;;;;8.98;1.85;;;13.40;99.90;;;;;;4928228;28;37733;-79
2023/01/01 04:43:31;;;;;;;11.57;1.77;;;13.40;99.90;;;;;;4928862;28;37776;-81
2023/01/01 04:45:58;;;;;;;11.18;2.08;;;13.40;99.90;;;;;;4933991;28;39231;-80
2023/01/01 04:48:24;;;;;;;7.53;1.73;;;13.40;99.90;;;;;;4928705;28;36987;-80
2023/01/01 04:51:03;;;;;;;5.68;1.70;;;13.50;99.90;;;;;;4916579;28;37703;-80
2023/01/01 04:53:32;;;;;;;11.05;1.60;;;13.50;99.90;;;;;;4931441;28;48654;-81
2023/01/01 04:56:08;;;;;;;9.57;1.63;;;13.50;99.90;;;;;;4932256;28;38589;-80
2023/01/01 04:58:36;;;;;;;7.70;2.10;;;13.50;99.90;;;;;;4935127;28;49109;-80
2023/01/01 05:01:03;;;;;;;7.70;1.75;;;13.40;99.90;;;;;;4931219;28;39808;-79
2023/01/01 05:03:30;;;;;;;8.13;1.88;;;13.40;99.90;;;;;;4933011;28;38596;-80
2023/01/01 05:06:04;;;;;;;8.85;1.80;;;13.30;99.90;;;;;;4912649;28;38638;-80
2023/01/01 05:08:34;;;;;;;7.20;1.63;;;13.30;99.90;;;;;;4910126;28;47153;-81
2023/01/01 05:11:02;;;;;;;9.73;2.00;;;13.30;99.90;;;;;;4937731;28;38229;-79
2023/01/01 05:13:28;;;;;;;9.02;1.40;;;13.30;99.90;;;;;;4918075;28;47400;-80
2023/01/01 05:15:55;;;;;;;7.15;1.90;;;13.20;99.90;;;;;;4930706;28;38225;-79
2023/01/01 05:18:21;;;;;;;6.32;1.40;;;13.20;99.90;;;;;;4921177;28;35781;-80
2023/01/01 05:20:47;;;;;;;6.22;1.70;;;13.20;99.90;;;;;;4932133;28;39540;-80
2023/01/01 05:23:16;;;;;;;6.53;2.05;;;13.20;99.90;;;;;;4935310;28;39728;-80
2023/01/01 05:25:43;;;;;;;7.50;1.65;;;13.20;99.90;;;;;;4912847;28;37313;-80
2023/01/01 05:28:09;;;;;;;12.60;1.90;;;13.20;99.90;;;;;;4930441;28;37797;-80
2023/01/01 05:30:39;;;;;;;6.25;1.50;;;13.10;99.90;;;;;;4931258;28;38769;-80
2023/01/01 05:33:05;;;;;;;10.00;1.98;;;13.10;99.90;;;;;;4935743;28;39786;-82
2023/01/01 05:35:31;;;;;;;9.05;2.08;;;13.10;99.90;;;;;;4934326;28;39689;-81
2023/01/01 05:37:57;;;;;;;8.70;1.73;;;13.10;99.90;;;;;;4916581;28;37055;-80
2023/01/01 05:40:23;;;;;;;7.82;2.00;;;13.10;99.90;;;;;;4908675;28;38572;-80
2023/01/01 05:42:49;;;;;;;7.70;1.75;;;13.10;99.90;;;;;;4933060;28;39142;-80
2023/01/01 05:45:16;;;;;;;9.52;1.95;;;13.10;99.90;;;;;;4943579;28;38471;-79
2023/01/01 05:47:42;;;;;;;4.57;1.25;;;13.00;99.90;;;;;;4941154;28;38284;-80
2023/01/01 05:50:08;;;;;;;6.57;1.48;;;13.00;99.90;;;;;;4938052;28;39432;-79
2023/01/01 05:52:34;;;;;;;6.53;1.58;;;13.00;99.90;;;;;;4937466;28;38607;-79
2023/01/01 05:55:00;;;;;;;7.72;1.40;;;13.00;99.90;;;;;;4930790;28;37378;-79
2023/01/01 05:57:29;;;;;;;6.53;1.75;;;13.00;99.90;;;;;;4922813;28;36428;-82
2023/01/01 05:59:55;;;;;;;6.90;1.63;;;13.00;99.90;;;;;;4927863;28;39103;-79
2023/01/01 06:02:22;;;;;;;6.95;1.25;;;12.90;99.90;;;;;;4927858;28;37605;-79
2023/01/01 06:04:48;;;;;;;9.35;1.63;;;12.90;99.90;;;;;;4915166;28;38507;-79
2023/01/01 06:07:14;;;;;;;7.97;2.05;;;12.90;99.90;;;;;;4943760;28;38249;-80
2023/01/01 06:09:40;;;;;;;7.80;1.50;;;12.90;99.90;;;;;;4938002;28;38853;-79
2023/01/01 06:12:07;;;;;;;10.90;1.85;;;12.90;99.90;;;;;;4913786;28;38423;-79
2023/01/01 06:14:33;;;;;;;13.38;1.73;;;12.80;99.90;;;;;;4921684;28;39335;-79
2023/01/01 06:16:59;;;;;;;11.55;2.40;;;12.80;99.90;;;;;;4934386;28;38075;-79
2023/01/01 06:19:25;;;;;;;8.75;1.38;;;12.80;99.90;;;;;;4929613;28;38306;-79
2023/01/01 06:21:51;;;;;;;9.00;1.67;;;12.80;99.90;;;;;;4926607;28;37515;-79
2023/01/01 06:24:18;;;;;;;10.07;1.45;;;12.80;99.90;;;;;;4927052;28;38246;-79
2023/01/01 06:26:44;;;;;;;11.60;1.80;;;12.80;99.90;;;;;;4932068;28;37099;-79
2023/01/01 06:29:10;;;;;;;5.28;1.23;;;12.80;99.90;;;;;;4931201;28;38051;-79
2023/01/01 06:31:36;;;;;;;10.82;1.67;;;12.70;99.90;;;;;;4933126;28;39591;-79
2023/01/01 06:34:02;;;;;;;11.32;1.75;;;12.80;99.90;;;;;;4910444;28;38340;-78
2023/01/01 06:36:28;;;;;;;10.27;1.60;;;12.80;99.90;;;;;;4924696;28;35821;-79
2023/01/01 06:38:57;;;;;;;9.48;1.50;;;12.70;99.90;;;;;;4930997;28;38562;-79
2023/01/01 06:41:25;;;;;;;10.15;1.55;;;12.60;99.90;;;;;;4943256;28;39762;-80
2023/01/01 06:43:54;;;;;;;11.23;2.20;;;12.60;99.90;;;;;;4923384;28;37190;-79
2023/01/01 06:46:22;;;;;;;7.15;1.55;;;12.60;99.90;;;;;;4931525;28;37641;-80
2023/01/01 06:48:52;;;;;;;7.97;1.60;;;12.60;99.90;;;;;;4944505;28;39660;-80
2023/01/01 06:51:20;;;;;;;5.70;2.13;;;12.50;99.90;;;;;;4941745;28;38822;-80
2023/01/01 06:53:50;;;;;;;9.10;1.45;;;12.50;99.90;;;;;;4927283;28;37151;-80
2023/01/01 06:56:17;;;;;;;10.77;1.70;;;12.50;99.90;;;;;;4926512;28;35731;-79
2023/01/01 06:58:43;;;;;;;5.32;1.23;;;12.50;99.90;;;;;;4917322;29;37189;-80
2023/01/01 07:01:21;;;;;;;11.50;1.60;;;12.40;99.90;;;;;;4927235;29;37453;-79
2023/01/01 07:03:51;;;;;;;12.05;2.05;;;12.30;99.90;;;;;;4935105;28;38043;-79
2023/01/01 07:06:17;;;;;;;6.53;1.23;;;12.40;99.90;;;;;;4930241;28;37403;-79
2023/01/01 07:08:43;;;;;;;9.50;1.50;;;12.40;99.90;;;;;;4935338;28;38654;-79
2023/01/01 07:11:09;;;;;;;14.80;1.58;;;12.40;99.90;;;;;;4937384;28;39433;-79
2023/01/01 07:13:35;;;;;;;13.85;2.30;;;12.40;99.90;;;;;;4926325;28;35859;-79
2023/01/01 07:16:02;;;;;;;8.73;2.05;;;12.30;99.90;;;;;;4918248;29;36142;-79
2023/01/01 07:18:28;;;;;;;10.27;1.40;;;12.30;99.90;;;;;;4943035;28;48800;-80
2023/01/01 07:20:59;;;;;;;11.85;1.92;;;12.30;99.90;;;;;;4936906;28;39095;-80
2023/01/01 07:23:27;;;;;;;13.60;2.13;;;12.20;99.90;;;;;;4937216;28;39188;-80
2023/01/01 07:25:54;;;;;;;9.00;2.20;;;12.20;99.90;;;;;;4937180;28;37489;-80
2023/01/01 07:28:22;;;;;;;13.00;3.10;;;12.10;99.90;;;;;;4936220;28;38476;-79
2023/01/01 07:30:48;;;;;;;12.20;2.70;;;12.00;99.90;;;;;;4940553;28;37531;-80
2023/01/01 07:33:17;;;;;;;13.77;2.60;;;12.00;99.90;;;;;;4929808;28;38636;-80
2023/01/01 07:35:45;;;;;;;13.13;2.50;;;12.00;99.90;;;;;;4919532;28;36281;-80
2023/01/01 07:38:12;;;;;;;8.60;1.40;;;12.00;99.90;;;;;;4924041;29;37837;-80
2023/01/01 07:40:39;;;;;;;6.03;1.33;;;12.00;99.90;;;;;;4922001;28;37373;-79
2023/01/01 07:43:05;;;;;;;7.85;1.92;;;12.00;99.90;;;;;;4942055;28;38520;-80
2023/01/01 07:45:32;;;;;;;13.07;1.70;;;12.00;99.90;;;;;;4935115;28;37620;-80
2023/01/01 07:47:59;;;;;;;12.98;2.67;;;11.90;99.90;;;;;;4934854;28;39662;-80
2023/01/01 07:50:29;;;;;;;12.13;1.70;;;12.00;99.90;;;;;;4941060;28;38005;-80
2023/01/01 07:52:55;;;;;;;12.13;1.95;;;12.00;99.90;;;;;;4932208;28;38144;-80
2023/01/01 07:55:22;;;;;;;9.48;1.52;;;11.90;99.90;;;;;;4922472;28;36318;-80
2023/01/01 07:57:48;;;;;;;12.45;2.10;;;12.00;99.90;;;;;;4937282;28;39297;-79
2023/01/01 08:00:17;;;;;;;12.65;2.03;;;11.90;99.90;;;;;;4921870;28;37386;-79
2023/01/01 08:02:44;;;;;;;10.98;1.88;;;11.90;99.90;;;;;;4929707;28;38505;-80
2023/01/01 08:05:10;;;;;;;8.65;1.92;;;11.80;99.90;;;;;;4933636;28;37718;-79
2023/01/01 08:07:37;;;;;;;13.05;2.25;;;11.90;99.90;;;;;;4920439;28;39401;-79
2023/01/01 08:10:05;;;;;;;16.77;2.47;;;11.90;99.90;;;;;;4921458;28;37401;-80
2023/01/01 08:12:31;;;;;;;13.40;1.48;;;11.90;99.90;;;;;;4937980;28;47412;-80
2023/01/01 08:14:57;;;;;;;9.95;1.52;;;11.90;99.90;;;;;;4932958;28;35681;-79
2023/01/01 08:17:23;;;;;;;13.32;2.03;;;11.90;99.90;;;;;;4927075;28;39127;-79
2023/01/01 08:19:50;;;;;;;9.23;2.13;;;11.90;99.90;;;;;;4932893;28;39353;-79
2023/01/01 08:22:16;;;;;;;12.25;2.53;;;11.90;99.90;;;;;;4913172;28;37439;-79
2023/01/01 08:24:43;;;;;;;17.42;2.08;;;11.90;99.90;;;;;;4931739;28;37312;-79
2023/01/01 08:27:14;;;;;;;14.57;2.08;;;11.90;99.90;;;;;;4930229;28;37868;-80
2023/01/01 08:29:41;;;;;;;15.82;2.10;;;11.90;99.90;;;;;;4943760;28;39424;-79
2023/01/01 08:32:07;;;;;;;14.52;3.38;;;11.90;99.90;;;;;;4948674;28;37888;-79
2023/01/01 08:34:33;;;;;;;14.32;2.63;;;11.90;99.90;;;;;;4940196;28;37211;-79
2023/01/01 08:36:59;;;;;;;17.63;2.03;;;12.00;99.90;;;;;;4937314;28;38767;-80
2023/01/01 08:39:25;;;;;;;14.52;2.42;;;12.00;99.90;;;;;;4946008;28;38918;-80
2023/01/01 08:41:51;;;;;;;13.30;1.90;;;12.00;99.90;;;;;;4929305;28;38719;-79
2023/01/01 08:44:18;;;;;;;15.70;2.55;;;12.00;99.90;;;;;;4929082;28;35832;-80
2023/01/01 08:46:44;;;;;;;14.45;2.78;;;12.00;99.90;;;;;;4929727;28;37395;-80
2023/01/01 08:49:11;;;;;;;14.95;3.40;;;11.90;99.90;;;;;;4939485;28;38615;-80
2023/01/01 08:51:37;;;;;;;13.25;2.45;;;11.90;99.90;;;;;;4944959;28;39476;-79
2023/01/01 08:54:03;;;;;;;15.15;1.83;;;11.80;99.90;;;;;;4935480;28;35657;-79
2023/01/01 08:56:30;;;;;;;15.20;2.05;;;11.80;99.90;;;;;;4934461;28;38901;-80
2023/01/01 08:58:56;;;;;;;12.52;2.50;;;11.80;99.90;;;;;;4933629;28;39595;-79
2023/01/01 09:01:25;;;;;;;17.20;2.97;;;11.80;99.90;;;;;;4915129;28;36907;-79
2023/01/01 09:03:51;;;;;;;13.52;1.98;;;11.70;99.90;;;;;;4926756;28;37433;-81
2023/01/01 09:06:17;;;;;;;12.88;2.22;;;11.70;99.90;;;;;;4913061;28;37768;-79
2023/01/01 09:08:43;;;;;;;10.60;2.17;;;11.70;99.90;;;;;;4934702;28;38732;-80
2023/01/01 09:11:27;;;;;;;8.98;1.80;;;11.70;99.90;;;;;;4921150;28;37474;-80
2023/01/01 09:13:54;;;;;;;13.27;2.35;;;11.70;99.90;;;;;;4929628;28;37585;-80
2023/01/01 09:16:21;;;;;;;16.30;2.20;;;11.70;99.90;;;;;;4932187;28;39640;-80
2023/01/01 09:18:48;;;;;;;11.82;2.08;;;11.70;99.90;;;;;;4922244;28;39488;-80
2023/01/01 09:21:14;;;;;;;13.35;2.47;;;11.80;99.90;;;;;;4913870;29;38654;-80
2023/01/01 09:23:40;;;;;;;15.40;2.22;;;11.80;99.90;;;;;;4935521;28;37613;-80
2023/01/01 09:26:08;;;;;;;12.50;2.05;;;11.90;99.90;;;;;;4912392;28;39782;-80
2023/01/01 09:28:35;;;;;;;10.38;2.55;;;11.90;99.90;;;;;;4933276;28;38809;-79
2023/01/01 09:31:03;;;;;;;11.05;1.60;;;11.90;99.90;;;;;;4940842;28;37343;-80
2023/01/01 09:33:29;;;;;;;14.00;2.05;;;12.00;99.90;;;;;;4919588;29;47717;-81
2023/01/01 09:36:30;;;;;;;13.43;1.92;;;12.00;99.90;;;;;;4940135;28;39620;-81
2023/01/01 09:38:57;;;;;;;9.73;1.60;;;12.10;99.90;;;;;;4916812;29;47207;-82
2023/01/01 09:41:26;;;;;;;9.43;2.08;;;12.20;99.90;;;;;;4936924;28;38649;-80
2023/01/01 09:44:01;;;;;;;13.95;2.00;;;12.30;99.90;;;;;;4935408;28;36946;-79
2023/01/01 09:46:28;;;;;;;11.52;1.80;;;12.30;99.90;;;;;;4934498;28;46894;-81
2023/01/01 09:49:01;;;;;;;16.27;2.67;;;12.40;99.90;;;;;;4937730;28;37500;-80
2023/01/01 09:51:34;;;;;;;12.13;2.42;;;12.50;99.90;;;;;;4940314;28;49019;-82
2023/01/01 09:54:15;;;;;;;12.38;1.73;;;12.60;99.90;;;;;;4942735;28;39788;-80
2023/01/01 09:56:44;;;;;;;9.43;2.08;;;12.60;99.90;;;;;;4942433;28;47985;-82
2023/01/01 09:59:10;;;;;;;13.43;2.60;;;12.60;99.90;;;;;;4913589;28;37455;-78
2023/01/01 10:02:04;;;;;;;15.93;2.58;;;12.60;99.90;;;;;;4914296;29;37663;-80
2023/01/01 10:04:45;;;;;;;13.90;2.42;;;12.70;99.90;;;;;;4941010;28;48481;-83
2023/01/01 10:07:36;;;;;;;17.67;2.63;;;12.70;99.90;;;;;;4941705;28;38022;-81
2023/01/01 10:10:33;;;;;;;14.05;2.22;;;12.70;99.90;;;;;;4943446;28;38065;-81
2023/01/01 10:13:23;;;;;;;14.30;2.50;;;12.80;99.90;;;;;;4934994;28;49035;-77
2023/01/01 10:16:04;;;;;;;18.63;2.97;;;12.80;99.90;;;;;;4930698;28;49225;-77
2023/01/01 10:18:37;;;;;;;10.75;2.05;;;12.80;99.90;;;;;;4925131;28;46992;-79
2023/01/01 10:21:26;;;;;;;17.42;2.75;;;12.90;99.90;;;;;;4932198;28;39159;-80
2023/01/01 10:24:13;;;;;;;14.15;3.17;;;12.90;99.90;;;;;;4934427;28;48736;-82
2023/01/01 10:26:39;;;;;;;11.63;2.40;;;13.00;99.90;;;;;;4941142;28;49065;-80
2023/01/01 10:29:08;;;;;;;13.63;2.55;;;13.00;99.90;;;;;;4935483;28;37476;-81
2023/01/01 10:31:55;;;;;;;16.55;3.13;;;13.00;99.90;;;;;;4932317;28;37354;-79
2023/01/01 10:34:25;;;;;;;13.60;2.30;;;13.00;99.90;;;;;;4929844;28;37852;-80
2023/01/01 10:36:54;;;;;;;13.23;2.90;;;12.90;99.90;;;;;;4935475;28;36871;-80
2023/01/01 10:39:21;;;;;;;14.95;2.95;;;12.90;99.90;;;;;;4930155;28;37495;-80
2023/01/01 10:41:47;;;;;;;14.10;2.45;;;12.90;99.90;;;;;;4932413;28;39232;-79
2023/01/01 10:44:27;;;;;;;8.70;2.30;;;12.90;99.90;;;;;;4933685;28;37449;-80
2023/01/01 10:46:58;;;;;;;17.00;3.20;;;12.90;99.90;;;;;;4941436;28;36707;-80
2023/01/01 10:49:24;;;;;;;32.22;2.70;;;13.00;99.90;;;;;;4935225;28;37323;-80
2023/01/01 10:51:53;;;;;;;13.13;2.05;;;13.10;99.90;;;;;;4916281;29;37684;-80
2023/01/01 10:54:51;;;;;;;11.43;2.85;;;13.20;99.90;;;;;;4929003;29;38730;-82
2023/01/01 10:57:40;;;;;;;11.93;2.33;;;13.30;99.90;;;;;;4910076;28;38821;-79
2023/01/01 11:00:32;;;;;;;12.73;2.53;;;13.30;99.90;;;;;;4932052;28;38919;-80
2023/01/01 11:03:19;;;;;;;12.05;2.30;;;13.30;99.90;;;;;;4940084;28;50489;-80
2023/01/01 11:05:59;;;;;;;18.65;3.08;;;13.20;99.90;;;;;;4946465;28;49141;-80
2023/01/01 11:08:28;;;;;;;14.18;3.30;;;13.10;99.90;;;;;;4940506;28;36401;-80
2023/01/01 11:10:57;;;;;;;13.10;2.53;;;13.10;99.90;;;;;;4937048;28;39152;-79
2023/01/01 11:13:23;;;;;;;14.00;2.85;;;13.10;99.90;;;;;;4942531;28;38983;-81
2023/01/01 11:15:50;;;;;;;12.68;3.00;;;13.00;99.90;;;;;;4933200;28;37479;-81
2023/01/01 11:18:34;;;;;;;12.60;3.38;;;12.90;99.90;;;;;;4932108;28;37543;-81
2023/01/01 11:21:03;;;;;;;17.67;3.28;;;12.90;99.90;;;;;;4948415;28;38676;-81
2023/01/01 11:23:37;;;;;;;15.70;3.55;;;12.90;99.90;;;;;;4932116;29;47082;-81
2023/01/01 11:26:20;;;;;;;15.73;3.00;;;12.90;99.90;;;;;;4941639;28;38894;-79
2023/01/01 11:29:21;;;;;;;16.35;3.78;;;12.90;99.90;;;;;;4946256;28;37194;-81
2023/01/01 11:31:47;;;;;;;15.00;4.00;;;13.00;99.90;;;;;;4927748;29;46874;-81
2023/01/01 11:34:28;;;;;;;14.88;2.90;;;13.00;99.90;;;;;;4943879;28;38894;-81
2023/01/01 11:37:28;;;;;;;15.30;3.67;;;13.00;99.90;;;;;;4932782;28;38498;-80
2023/01/01 11:39:57;;;;;;;16.15;3.65;;;13.00;99.90;;;;;;4920697;28;47057;-81
2023/01/01 11:42:32;;;;;;;12.05;3.05;;;13.00;99.90;;;;;;4931171;28;38137;-81
2023/01/01 11:45:19;;;;;;;16.17;3.10;;;13.10;99.90;;;;;;4933147;28;37793;-81
2023/01/01 11:47:51;;;;;;;14.68;3.42;;;13.10;99.90;;;;;;4919761;28;47111;-80
2023/01/01 11:50:47;;;;;;;14.73;3.38;;;13.20;99.90;;;;;;4914644;28;37053;-82
2023/01/01 11:53:20;;;;;;;12.10;2.45;;;13.20;99.90;;;;;;4936492;28;39121;-81
2023/01/01 11:56:08;;;;;;;13.57;2.33;;;13.30;99.90;;;;;;4942048;28;38610;-81
2023/01/01 11:58:54;;;;;;;13.43;2.80;;;13.30;99.90;;;;;;4936580;28;48702;-81
2023/01/01 12:01:31;;;;;;;14.30;2.38;;;13.40;99.90;;;;;;4938708;28;38098;-82
2023/01/01 12:04:06;;;;;;;12.48;2.50;;;13.40;99.90;;;;;;4935130;28;37677;-81
2023/01/01 12:06:37;;;;;;;16.98;3.60;;;13.50;99.90;;;;;;4940564;28;37078;-82
2023/01/01 12:09:22;;;;;;;12.52;2.85;;;13.40;99.90;;;;;;4931358;28;38094;-81
2023/01/01 12:12:25;;;;;;;15.63;3.47;;;13.50;99.90;;;;;;4922086;28;48900;-82
2023/01/01 12:14:54;;;;;;;;;;;13.40;99.90;;;;;;4940127;28;46809;-81
2023/01/01 12:17:29;;;;;;;13.05;2.50;;;13.40;99.90;;;;;;4935584;28;37578;-80
2023/01/01 12:20:20;;;;;;;15.25;3.20;;;13.40;99.90;;;;;;4920172;28;37318;-79
2023/01/01 12:22:47;;;;;;;17.10;3.53;;;13.50;99.90;;;;;;4930677;28;47014;-80
2023/01/01 12:25:16;;;;;;;14.18;2.97;;;13.50;99.90;;;;;;4936474;28;39883;-79
2023/01/01 12:28:09;;;;;;;18.13;2.92;;;13.60;99.90;;;;;;4935322;28;38468;-80
2023/01/01 12:31:02;;;;;;;18.08;3.03;;;13.60;99.90;;;;;;4929081;28;48384;-80
2023/01/01 12:33:37;;;;;;;16.58;3.55;;;13.60;99.90;;;;;;4931365;28;48315;-80
2023/01/01 12:36:06;;;;;;;18.30;2.92;;;13.60;99.90;;;;;;4931317;28;38144;-80
2023/01/01 12:38:50;;;;;;;16.27;2.60;;;13.60;99.90;;;;;;4925616;28;47228;-80
2023/01/01 12:41:16;;;;;;;13.13;2.78;;;13.60;99.90;;;;;;4925879;28;37057;-79
2023/01/01 12:43:55;;;;;;;17.02;2.50;;;13.60;99.90;;;;;;4927726;28;38304;-80
2023/01/01 12:46:46;;;;;;;17.52;3.33;;;13.60;99.90;;;;;;4910511;28;39121;-80
2023/01/01 12:49:37;;;;;;;17.63;3.13;;;13.50;99.90;;;;;;4914201;29;39187;-80
2023/01/01 12:52:13;;;;;;;21.02;3.95;;;13.50;99.90;;;;;;4927977;28;40115;-79
2023/01/01 12:55:00;;;;;;;13.75;2.58;;;13.40;99.90;;;;;;4933378;28;36382;-80
2023/01/01 12:57:43;;;;;;;9.73;2.55;;;13.40;99.90;;;;;;4926023;28;38441;-79
2023/01/01 13:00:16;;;;;;;16.65;2.90;;;13.40;99.90;;;;;;4928697;28;38807;-80
2023/01/01 13:02:50;;;;;;;18.15;2.90;;;13.40;99.90;;;;;;4927097;28;48132;-80
2023/01/01 13:05:35;;;;;;;21.48;3.38;;;13.40;99.90;;;;;;4911193;28;39247;-79
2023/01/01 13:08:04;;;;;;;17.77;3.00;;;13.40;99.90;;;;;;4920729;28;39521;-79
2023/01/01 13:10:37;;;;;;;20.38;3.50;;;13.40;99.90;;;;;;4935719;28;39009;-81
2023/01/01 13:13:04;;;;;;;18.92;2.55;;;13.50;99.90;;;;;;4923798;29;39888;-80
2023/01/01 13:15:36;;;;;;;18.38;2.90;;;13.40;99.90;;;;;;4942060;28;37335;-81